Darstellungsparameter: Aktuell verwendete Einstellungen:
Skalierung der Graphiken ... ?
xyx+y,   Skalierungsfaktor:      Skalierung: Modus: x, Faktor: 1
Darstellungszeitraum ... ?
Vom - - bis: - -   Zeitraum: 13.04.2021 - 13.04.2021
Min/Max/Avg-Anzeige ... ?
Zeige MMA aktuell
Zeige MMA Monat
Zeige MMA alles
Zeige --A aktuell
Zeige --A Monat
Zeige --A alles
Keine MMA-Anzeige
MMA:
Minimum Maximum Average (ber die Originaldaten)
MMA-Basis: 13.04.2021 - 13.04.2021
Quicknavigation für Darstellung... ?
Tage:      1T, 2T, 3T, 5T -1T -2T -3T -5T +1T +2T +3T +5T
Wochen: 1W, 2W, 3W -1W -2W -3W +1W +2W +3W
Monate: 1M, 3M, 6M -1M -3M -6M +1M +3M +6M
Jahre:    1J, 3J, 5J, 10J -1J -3J -5J -10J +1J +3J +5J +10J
Nutze für die Darstellung ... ?
Originaldaten oder Mittelwerte auf ...
Stundenbasis Tagesbasis Wochenbasis
Monatsbasis Jahresbasis      Datenbasis: Original-Daten
Darstellen als:
Statistik (Auto) Statistik J:M      Darstellung:
Zur Graphik,    zurück zur Übersicht aller Sensoren.
 
Tabellarische Datenbersicht: ?
 
Sensor: Nr:Datum:Temp:Feuchte:Taupunkt:
Aussen-T/F 1 13-04-2021 00:00:00 0.8 C 92 % -0.35 C
2 13-04-2021 00:05:00 0.7 C 92 % -0.45 C
3 13-04-2021 00:10:00 0.7 C 92 % -0.45 C
4 13-04-2021 00:15:00 0.6 C 92 % -0.55 C
5 13-04-2021 00:20:00 0.4 C 92 % -0.74 C
6 13-04-2021 00:25:00 0.4 C 92 % -0.74 C
7 13-04-2021 00:30:00 0.3 C 92 % -0.84 C
8 13-04-2021 00:35:00 0.3 C 93 % -0.7 C
9 13-04-2021 00:40:00 0.3 C 93 % -0.7 C
10 13-04-2021 00:45:00 0.3 C 93 % -0.7 C
11 13-04-2021 00:50:00 0.2 C 93 % -0.79 C
12 13-04-2021 00:55:00 0.2 C 93 % -0.79 C
13 13-04-2021 01:00:00 0.1 C 93 % -0.89 C
14 13-04-2021 01:05:00 0.1 C 93 % -0.89 C
15 13-04-2021 01:10:00 -0.1 C 93 % -1.09 C
16 13-04-2021 01:15:00 -0.1 C 93 % -1.09 C
17 13-04-2021 01:20:00 -0.1 C 93 % -1.09 C
18 13-04-2021 01:25:00 -0.1 C 93 % -1.09 C
19 13-04-2021 01:30:00 -0.2 C 93 % -1.19 C
20 13-04-2021 01:35:00 -0.2 C 93 % -1.19 C
21 13-04-2021 01:40:00 -0.3 C 93 % -1.29 C
22 13-04-2021 01:45:00 -0.3 C 94 % -1.15 C
23 13-04-2021 01:50:00 -0.3 C 94 % -1.15 C
24 13-04-2021 01:55:00 -0.4 C 94 % -1.25 C
25 13-04-2021 02:00:00 -0.3 C 94 % -1.15 C
Sensor: Nr:Datum:Temp:Feuchte:Taupunkt:
Aussen-T/F 26 13-04-2021 02:05:00 -0.4 C 94 % -1.25 C
27 13-04-2021 02:10:00 -0.4 C 94 % -1.25 C
28 13-04-2021 02:15:00 -0.4 C 94 % -1.25 C
29 13-04-2021 02:20:00 -0.4 C 94 % -1.25 C
30 13-04-2021 02:25:00 -0.5 C 94 % -1.34 C
31 13-04-2021 02:30:00 -0.5 C 94 % -1.34 C
32 13-04-2021 02:35:00 -0.6 C 94 % -1.44 C
33 13-04-2021 02:40:00 -0.6 C 94 % -1.44 C
34 13-04-2021 02:45:00 -0.7 C 94 % -1.54 C
35 13-04-2021 02:50:00 -0.7 C 94 % -1.54 C
36 13-04-2021 02:55:00 -0.7 C 94 % -1.54 C
37 13-04-2021 03:00:00 -0.8 C 94 % -1.64 C
38 13-04-2021 03:05:00 -0.8 C 94 % -1.64 C
39 13-04-2021 03:10:00 -0.9 C 94 % -1.74 C
40 13-04-2021 03:15:00 -0.9 C 94 % -1.74 C
41 13-04-2021 03:20:00 -0.9 C 94 % -1.74 C
42 13-04-2021 03:25:00 -1 C 94 % -1.84 C
43 13-04-2021 03:30:00 -1.1 C 94 % -1.94 C
44 13-04-2021 03:35:00 -1.1 C 94 % -1.94 C
45 13-04-2021 03:40:00 -1.1 C 94 % -1.94 C
46 13-04-2021 03:45:00 -1.1 C 94 % -1.94 C
47 13-04-2021 03:50:00 -1.1 C 94 % -1.94 C
48 13-04-2021 03:55:00 -1.2 C 94 % -2.04 C
49 13-04-2021 04:00:00 -1.2 C 94 % -2.04 C
50 13-04-2021 04:05:00 -1.2 C 94 % -2.04 C
Sensor: Nr:Datum:Temp:Feuchte:Taupunkt:
Aussen-T/F 51 13-04-2021 04:10:00 -1.2 C 95 % -1.9 C
52 13-04-2021 04:15:00 -1.2 C 95 % -1.9 C
53 13-04-2021 04:20:00 -1.2 C 95 % -1.9 C
54 13-04-2021 04:25:00 -1.3 C 95 % -2 C
55 13-04-2021 04:30:00 -1.3 C 95 % -2 C
56 13-04-2021 04:35:00 -1.3 C 95 % -2 C
57 13-04-2021 04:40:00 -1.3 C 95 % -2 C
58 13-04-2021 04:45:00 -1.3 C 95 % -2 C
59 13-04-2021 04:50:00 -1.3 C 95 % -2 C
60 13-04-2021 04:55:00 -1.3 C 95 % -2 C
61 13-04-2021 05:00:00 -1.3 C 95 % -2 C
62 13-04-2021 05:05:00 -1.3 C 95 % -2 C
63 13-04-2021 05:10:00 -1.3 C 95 % -2 C
64 13-04-2021 05:15:00 -1.3 C 95 % -2 C
65 13-04-2021 05:20:00 -1.3 C 95 % -2 C
66 13-04-2021 05:25:00 -1.4 C 95 % -2.1 C
67 13-04-2021 05:30:00 -1.4 C 95 % -2.1 C
68 13-04-2021 05:35:00 -1.4 C 95 % -2.1 C
69 13-04-2021 05:40:00 -1.4 C 95 % -2.1 C
70 13-04-2021 05:45:00 -1.4 C 95 % -2.1 C
71 13-04-2021 05:50:00 -1.4 C 95 % -2.1 C
72 13-04-2021 05:55:00 -1.3 C 95 % -2 C
73 13-04-2021 06:00:00 -1.4 C 95 % -2.1 C
74 13-04-2021 06:05:00 -1.4 C 95 % -2.1 C
75 13-04-2021 06:10:00 -1.4 C 95 % -2.1 C
Sensor: Nr:Datum:Temp:Feuchte:Taupunkt:
Aussen-T/F 76 13-04-2021 06:15:00 -1.4 C 95 % -2.1 C
77 13-04-2021 06:20:00 -1.4 C 95 % -2.1 C
78 13-04-2021 06:25:00 -1.3 C 95 % -2 C
79 13-04-2021 06:30:00 -1.3 C 95 % -2 C
80 13-04-2021 06:35:00 -1.3 C 95 % -2 C
81 13-04-2021 06:40:00 -1.4 C 95 % -2.1 C
82 13-04-2021 06:45:00 -1.4 C 95 % -2.1 C
83 13-04-2021 06:50:00 -1.4 C 95 % -2.1 C
84 13-04-2021 06:55:00 -1.5 C 95 % -2.19 C
85 13-04-2021 07:00:00 -1.5 C 95 % -2.19 C
86 13-04-2021 07:05:00 -1.5 C 95 % -2.19 C
87 13-04-2021 07:10:00 -1.4 C 95 % -2.1 C
88 13-04-2021 07:15:00 -1.4 C 95 % -2.1 C
89 13-04-2021 07:20:00 -1.3 C 95 % -2 C
90 13-04-2021 07:25:00 -1.3 C 96 % -1.85 C
91 13-04-2021 07:30:00 -1.2 C 96 % -1.75 C
92 13-04-2021 07:35:00 -1.2 C 96 % -1.75 C
93 13-04-2021 07:40:00 -1.1 C 96 % -1.66 C
94 13-04-2021 07:45:00 -1.1 C 96 % -1.66 C
95 13-04-2021 07:50:00 -1 C 95 % -1.7 C
96 13-04-2021 07:55:00 -1 C 95 % -1.7 C
97 13-04-2021 08:00:00 -0.9 C 96 % -1.46 C
98 13-04-2021 08:05:00 -0.8 C 96 % -1.36 C
99 13-04-2021 08:10:00 -0.7 C 96 % -1.26 C
100 13-04-2021 08:15:00 -0.5 C 96 % -1.06 C
Sensor: Nr:Datum:Temp:Feuchte:Taupunkt:
Aussen-T/F 101 13-04-2021 08:20:00 -0.3 C 96 % -0.86 C
102 13-04-2021 08:25:00 -0.2 C 96 % -0.76 C
103 13-04-2021 08:30:00 -0.1 C 96 % -0.66 C
104 13-04-2021 08:35:00 -0.1 C 96 % -0.66 C
105 13-04-2021 08:40:00 0 C 96 % -0.56 C
106 13-04-2021 08:45:00 0.1 C 96 % -0.46 C
107 13-04-2021 08:50:00 0.2 C 96 % -0.36 C
108 13-04-2021 08:55:00 0.3 C 96 % -0.26 C
109 13-04-2021 09:00:00 0.4 C 96 % -0.16 C
110 13-04-2021 09:05:00 0.4 C 96 % -0.16 C
111 13-04-2021 09:10:00 0.6 C 96 % 0.04 C
112 13-04-2021 09:15:00 0.7 C 96 % 0.14 C
113 13-04-2021 09:20:00 0.7 C 96 % 0.14 C
114 13-04-2021 09:25:00 0.8 C 96 % 0.24 C
115 13-04-2021 09:30:00 0.9 C 96 % 0.34 C
116 13-04-2021 09:35:00 1.1 C 96 % 0.54 C
117 13-04-2021 09:40:00 1.2 C 96 % 0.63 C
118 13-04-2021 09:45:00 1.3 C 96 % 0.73 C
119 13-04-2021 09:50:00 1.5 C 96 % 0.93 C
120 13-04-2021 09:55:00 1.7 C 96 % 1.13 C
121 13-04-2021 10:00:00 1.9 C 96 % 1.33 C
122 13-04-2021 10:05:00 2.1 C 96 % 1.53 C
123 13-04-2021 10:10:00 2.1 C 95 % 1.38 C
124 13-04-2021 10:15:00 2.2 C 95 % 1.48 C
125 13-04-2021 10:20:00 2.3 C 95 % 1.58 C
Sensor: Nr:Datum:Temp:Feuchte:Taupunkt:
Aussen-T/F 126 13-04-2021 10:25:00 2.5 C 94 % 1.63 C
127 13-04-2021 10:30:00 2.7 C 94 % 1.83 C
128 13-04-2021 10:35:00 2.9 C 93 % 1.88 C
129 13-04-2021 10:40:00 3.2 C 92 % 2.03 C
130 13-04-2021 10:45:00 3.4 C 91 % 2.07 C
131 13-04-2021 10:50:00 3.6 C 90 % 2.12 C
132 13-04-2021 10:55:00 3.9 C 89 % 2.26 C
133 13-04-2021 11:00:00 4.3 C 90 % 2.81 C
134 13-04-2021 11:05:00 4.6 C 87 % 2.63 C
135 13-04-2021 11:10:00 4.7 C 86 % 2.56 C
136 13-04-2021 11:15:00 4.7 C 84 % 2.23 C
137 13-04-2021 11:20:00 4.7 C 84 % 2.23 C
138 13-04-2021 11:25:00 4.7 C 84 % 2.23 C
139 13-04-2021 11:30:00 4.8 C 84 % 2.33 C
140 13-04-2021 11:35:00 4.9 C 83 % 2.26 C
141 13-04-2021 11:40:00 5 C 82 % 2.19 C
142 13-04-2021 11:45:00 5.2 C 82 % 2.39 C
143 13-04-2021 11:50:00 5.2 C 82 % 2.39 C
144 13-04-2021 11:55:00 5.3 C 82 % 2.48 C
145 13-04-2021 12:00:00 5.5 C 82 % 2.68 C
146 13-04-2021 12:05:00 5.6 C 81 % 2.6 C
147 13-04-2021 12:10:00 5.6 C 80 % 2.43 C
148 13-04-2021 12:15:00 5.6 C 80 % 2.43 C
149 13-04-2021 12:20:00 5.6 C 80 % 2.43 C
150 13-04-2021 12:25:00 5.4 C 79 % 2.06 C
Sensor: Nr:Datum:Temp:Feuchte:Taupunkt:
Aussen-T/F 151 13-04-2021 12:30:00 5.4 C 78 % 1.88 C
152 13-04-2021 12:35:00 5.4 C 77 % 1.7 C
153 13-04-2021 12:40:00 5.5 C 77 % 1.8 C
154 13-04-2021 12:45:00 5.7 C 79 % 2.35 C
155 13-04-2021 12:50:00 5.8 C 78 % 2.27 C
156 13-04-2021 12:55:00 5.9 C 77 % 2.19 C
157 13-04-2021 13:00:00 5.9 C 77 % 2.19 C
158 13-04-2021 13:05:00 5.9 C 78 % 2.37 C
159 13-04-2021 13:10:00 6.1 C 78 % 2.56 C
160 13-04-2021 13:15:00 6.3 C 77 % 2.57 C
161 13-04-2021 13:20:00 6.3 C 75 % 2.2 C
162 13-04-2021 13:25:00 6.3 C 75 % 2.2 C
163 13-04-2021 13:30:00 6.3 C 72 % 1.63 C
164 13-04-2021 13:35:00 6.4 C 72 % 1.73 C
165 13-04-2021 13:40:00 6.5 C 71 % 1.63 C
166 13-04-2021 13:45:00 6.6 C 70 % 1.53 C
167 13-04-2021 13:50:00 6.7 C 70 % 1.63 C
168 13-04-2021 13:55:00 6.9 C 67 % 1.21 C
169 13-04-2021 14:00:00 7 C 66 % 1.09 C
170 13-04-2021 14:05:00 7.1 C 66 % 1.19 C
171 13-04-2021 14:10:00 7.1 C 67 % 1.4 C
172 13-04-2021 14:15:00 7.1 C 66 % 1.19 C
173 13-04-2021 14:20:00 7.2 C 68 % 1.7 C
174 13-04-2021 14:25:00 7.4 C 66 % 1.48 C
175 13-04-2021 14:30:00 7.5 C 68 % 1.99 C
Sensor: Nr:Datum:Temp:Feuchte:Taupunkt:
Aussen-T/F 176 13-04-2021 14:35:00 7.4 C 66 % 1.48 C
177 13-04-2021 14:40:00 7.5 C 68 % 1.99 C
178 13-04-2021 14:45:00 7.8 C 68 % 2.27 C
179 13-04-2021 14:50:00 8.2 C 66 % 2.24 C
180 13-04-2021 14:55:00 8.4 C 67 % 2.64 C
181 13-04-2021 15:00:00 8.7 C 64 % 2.28 C
182 13-04-2021 15:05:00 8.5 C 62 % 1.65 C
183 13-04-2021 15:10:00 8.4 C 59 % 0.87 C
184 13-04-2021 15:15:00 8.4 C 61 % 1.33 C
185 13-04-2021 15:20:00 8.4 C 59 % 0.87 C
186 13-04-2021 15:25:00 8.4 C 60 % 1.1 C
187 13-04-2021 15:30:00 8.6 C 60 % 1.29 C
188 13-04-2021 15:35:00 8.8 C 56 % 0.52 C
189 13-04-2021 15:40:00 9 C 58 % 1.19 C
190 13-04-2021 15:45:00 9.2 C 56 % 0.89 C
191 13-04-2021 15:50:00 9.3 C 56 % 0.99 C
192 13-04-2021 15:55:00 9.4 C 56 % 1.08 C
193 13-04-2021 16:00:00 9.5 C 57 % 1.42 C
194 13-04-2021 16:05:00 9.6 C 54 % 0.76 C
195 13-04-2021 16:10:00 9.8 C 51 % 0.16 C
196 13-04-2021 16:15:00 9.8 C 53 % 0.69 C
197 13-04-2021 16:20:00 9.8 C 52 % 0.43 C
198 13-04-2021 16:25:00 10.1 C 51 % 0.44 C
199 13-04-2021 16:30:00 10.1 C 51 % 0.44 C
200 13-04-2021 16:35:00 10.1 C 53 % 0.97 C
Sensor: Nr:Datum:Temp:Feuchte:Taupunkt:
Aussen-T/F 201 13-04-2021 16:40:00 10.1 C 53 % 0.97 C
202 13-04-2021 16:45:00 10.5 C 53 % 1.34 C
203 13-04-2021 16:50:00 10.7 C 50 % 0.72 C
204 13-04-2021 16:55:00 10.4 C 50 % 0.44 C
205 13-04-2021 17:00:00 9.9 C 52 % 0.52 C
206 13-04-2021 17:05:00 9.6 C 51 % -0.03 C
207 13-04-2021 17:10:00 9 C 57 % 0.95 C
208 13-04-2021 17:15:00 8.5 C 61 % 1.42 C
209 13-04-2021 17:20:00 8.2 C 63 % 1.59 C
210 13-04-2021 17:25:00 7.9 C 63 % 1.3 C
211 13-04-2021 17:30:00 7.9 C 61 % 0.86 C
212 13-04-2021 17:35:00 7.9 C 62 % 1.08 C
213 13-04-2021 17:40:00 8.1 C 61 % 1.05 C
214 13-04-2021 17:45:00 8 C 60 % 0.72 C
215 13-04-2021 17:50:00 7.9 C 59 % 0.4 C
216 13-04-2021 17:55:00 7.8 C 59 % 0.3 C
217 13-04-2021 18:00:00 7.7 C 60 % 0.44 C
218 13-04-2021 18:05:00 7.7 C 61 % 0.67 C
219 13-04-2021 18:10:00 7.9 C 60 % 0.63 C
220 13-04-2021 18:15:00 8.6 C 58 % 0.82 C
221 13-04-2021 18:20:00 9.1 C 58 % 1.29 C
222 13-04-2021 18:25:00 9.6 C 56 % 1.27 C
223 13-04-2021 18:30:00 10 C 56 % 1.64 C
224 13-04-2021 18:35:00 10.2 C 54 % 1.32 C
225 13-04-2021 18:40:00 10.4 C 52 % 0.98 C
Sensor: Nr:Datum:Temp:Feuchte:Taupunkt:
Aussen-T/F 226 13-04-2021 18:45:00 10.5 C 53 % 1.34 C
227 13-04-2021 18:50:00 10.2 C 53 % 1.06 C
228 13-04-2021 18:55:00 9.8 C 54 % 0.95 C
229 13-04-2021 19:00:00 9.2 C 53 % 0.13 C
230 13-04-2021 19:05:00 8.8 C 56 % 0.52 C
231 13-04-2021 19:10:00 8.3 C 60 % 1 C
232 13-04-2021 19:15:00 8 C 63 % 1.4 C
233 13-04-2021 19:20:00 7.7 C 64 % 1.33 C
234 13-04-2021 19:25:00 7.4 C 65 % 1.26 C
235 13-04-2021 19:30:00 7.2 C 66 % 1.29 C
236 13-04-2021 19:35:00 7.1 C 65 % 0.98 C
237 13-04-2021 19:40:00 7 C 66 % 1.09 C
238 13-04-2021 19:45:00 6.9 C 68 % 1.41 C
239 13-04-2021 19:50:00 6.7 C 69 % 1.43 C
240 13-04-2021 19:55:00 6.6 C 69 % 1.33 C
241 13-04-2021 20:00:00 6.4 C 70 % 1.34 C
242 13-04-2021 20:05:00 6.3 C 72 % 1.63 C
243 13-04-2021 20:10:00 6.1 C 73 % 1.63 C
244 13-04-2021 20:15:00 5.9 C 74 % 1.63 C
245 13-04-2021 20:20:00 5.7 C 75 % 1.62 C
246 13-04-2021 20:25:00 5.4 C 76 % 1.52 C
247 13-04-2021 20:30:00 5.2 C 77 % 1.51 C
248 13-04-2021 20:35:00 4.9 C 78 % 1.39 C
249 13-04-2021 20:40:00 4.7 C 79 % 1.38 C
250 13-04-2021 20:45:00 4.6 C 79 % 1.28 C
Sensor: Nr:Datum:Temp:Feuchte:Taupunkt:
Aussen-T/F 251 13-04-2021 20:50:00 4.4 C 80 % 1.26 C
252 13-04-2021 20:55:00 4.3 C 80 % 1.16 C
253 13-04-2021 21:00:00 4.2 C 81 % 1.24 C
254 13-04-2021 21:05:00 4.1 C 82 % 1.31 C
255 13-04-2021 21:10:00 3.9 C 82 % 1.12 C
256 13-04-2021 21:15:00 3.8 C 82 % 1.02 C
257 13-04-2021 21:20:00 3.7 C 83 % 1.09 C
258 13-04-2021 21:25:00 3.6 C 83 % 0.99 C
259 13-04-2021 21:30:00 3.6 C 82 % 0.82 C
260 13-04-2021 21:35:00 3.7 C 83 % 1.09 C
261 13-04-2021 21:40:00 3.7 C 83 % 1.09 C
262 13-04-2021 21:45:00 3.8 C 84 % 1.35 C
263 13-04-2021 21:50:00 3.8 C 84 % 1.35 C
264 13-04-2021 21:55:00 3.9 C 85 % 1.61 C
265 13-04-2021 22:00:00 3.9 C 85 % 1.61 C
266 13-04-2021 22:05:00 3.9 C 85 % 1.61 C
267 13-04-2021 22:10:00 3.8 C 85 % 1.52 C
268 13-04-2021 22:15:00 3.8 C 85 % 1.52 C
269 13-04-2021 22:20:00 3.7 C 85 % 1.42 C
270 13-04-2021 22:25:00 3.7 C 85 % 1.42 C
271 13-04-2021 22:30:00 3.6 C 85 % 1.32 C
272 13-04-2021 22:35:00 3.4 C 85 % 1.12 C
273 13-04-2021 22:40:00 3.4 C 85 % 1.12 C
274 13-04-2021 22:45:00 3.3 C 85 % 1.03 C
275 13-04-2021 22:50:00 3.1 C 86 % 0.99 C
Sensor: Nr:Datum:Temp:Feuchte:Taupunkt:
Aussen-T/F 276 13-04-2021 22:55:00 3 C 86 % 0.89 C
277 13-04-2021 23:00:00 2.9 C 86 % 0.8 C
278 13-04-2021 23:05:00 2.8 C 86 % 0.7 C
279 13-04-2021 23:10:00 2.7 C 87 % 0.76 C
280 13-04-2021 23:15:00 2.6 C 87 % 0.66 C
281 13-04-2021 23:20:00 2.4 C 87 % 0.46 C
282 13-04-2021 23:25:00 2.2 C 87 % 0.27 C
283 13-04-2021 23:30:00 2.1 C 87 % 0.17 C
284 13-04-2021 23:35:00 2 C 88 % 0.23 C
285 13-04-2021 23:40:00 1.9 C 88 % 0.13 C
286 13-04-2021 23:45:00 1.8 C 88 % 0.03 C
287 13-04-2021 23:50:00 1.8 C 89 % 0.19 C
288 13-04-2021 23:55:00 1.7 C 89 % 0.09 C

Legende:
   Min
   Max


Maximal/Minimal-Werte vom 13.04.2021 - 13.04.2021

Sensor Min Max Avg
Temp
(Aussen-T/F)
-1.5 °C
13-04-2021  06:55:00
10.7 °C
13-04-2021  16:50:00
3.34 °C
Feuchte
(Aussen-T/F)
50 %
13-04-2021  16:50:00
96 %
13-04-2021  07:25:00
81.85 %
Taupunkt
(Aussen-T/F)
-2.19 C
13-04-2021  06:55:00
2.81 C
13-04-2021  11:00:00
0.24 C

Die Daten stammen von einer Davis Vantage Pro 2 Wetter-Station und werden unter Linux mit der Software wview2wettercgi und aufbereitet. Alle Angaben erfolgen ohne Gewähr für ihre Vollständigkeit oder Richtigkeit.
Kontakt: Rainer Krienke krienke@uni-koblenz.de . Meine Webseiten an der Uni Koblenz oder privat.
Version: $Revision: 0.78 $